Time;durP1;ratioP1;P1;durP2;ratioP2;P2;SDS_P1;SDS_P2;PMS_P1;PMS_P2;Temp;Humidity;BMP_temperature;BMP_pressure;BME280_temperature;BME280_humidity;BME280_pressure;Samples;Min_cycle;Max_cycle;Signal;HPM_P1;HPM_P2
2022/07/21 00:02:17;;;;;;;151.43;142.48;;;;;;;20.18;100.00;96981.22;5055250;28;20201;-64
2022/07/21 00:04:43;;;;;;;165.52;155.77;;;;;;;20.24;100.00;96977.44;5073433;28;20182;-64
2022/07/21 00:07:08;;;;;;;156.05;146.50;;;;;;;20.32;100.00;96983.00;5073437;28;20225;-64
2022/07/21 00:09:35;;;;;;;157.90;148.40;;;;;;;20.19;100.00;96996.94;5073601;28;20192;-64
2022/07/21 00:12:02;;;;;;;146.82;137.93;;;;;;;20.20;100.00;96995.88;5073268;28;20649;-64
2022/07/21 00:14:27;;;;;;;144.13;135.27;;;;;;;20.12;100.00;96993.00;5072708;28;20191;-64
2022/07/21 00:16:53;;;;;;;141.02;132.43;;;;;;;20.06;100.00;96989.59;5072859;28;20596;-64
2022/07/21 00:19:18;;;;;;;145.60;136.85;;;;;;;20.04;100.00;96986.44;5072736;28;20191;-64
2022/07/21 00:21:43;;;;;;;151.57;142.43;;;;;;;20.04;100.00;96990.97;5072620;28;20264;-64
2022/07/21 00:24:09;;;;;;;149.02;140.07;;;;;;;20.04;100.00;96999.75;5072338;28;20181;-64
2022/07/21 00:26:34;;;;;;;150.60;141.38;;;;;;;20.02;100.00;97009.88;5073309;28;20217;-62
2022/07/21 00:28:59;;;;;;;143.63;134.60;;;;;;;20.10;100.00;97013.81;5069658;28;20634;-62
2022/07/21 00:31:25;;;;;;;152.77;143.40;;;;;;;20.07;100.00;97017.81;5073262;28;20224;-62
2022/07/21 00:33:51;;;;;;;140.88;132.32;;;;;;;20.03;100.00;97034.63;5073150;28;20217;-62
2022/07/21 00:36:17;;;;;;;142.23;133.38;;;;;;;20.02;100.00;97023.19;5073297;28;20304;-63
2022/07/21 00:38:42;;;;;;;138.38;130.02;;;;;;;20.18;100.00;97016.63;5072950;28;20693;-63
2022/07/21 00:41:08;;;;;;;136.15;127.82;;;;;;;20.16;100.00;97010.81;5072902;28;20259;-63
2022/07/21 00:43:33;;;;;;;128.43;120.75;;;;;;;20.15;100.00;96998.59;5072530;28;20217;-62
2022/07/21 00:45:58;;;;;;;118.55;111.32;;;;;;;20.07;100.00;96988.53;5073041;28;20181;-62
2022/07/21 00:48:24;;;;;;;119.68;112.47;;;;;;;20.19;100.00;96994.28;5073234;28;20760;-62
2022/07/21 00:50:49;;;;;;;124.47;116.85;;;;;;;20.26;100.00;96991.28;5072500;28;20661;-63
2022/07/21 00:53:15;;;;;;;113.05;106.35;;;;;;;20.23;100.00;96991.81;5072904;28;20212;-63
2022/07/21 00:55:44;;;;;;;115.40;108.50;;;;;;;20.32;100.00;96984.84;5072980;28;20225;-63
2022/07/21 00:58:10;;;;;;;103.53;97.10;;;;;;;20.31;100.00;96996.53;5072283;28;20188;-63
2022/07/21 01:00:36;;;;;;;105.47;98.97;;;;;;;20.28;100.00;96994.47;5072913;28;20189;-63
2022/07/21 01:03:02;;;;;;;102.07;95.80;;;;;;;20.28;100.00;96991.78;5072464;28;20283;-64
2022/07/21 01:05:28;;;;;;;110.82;104.13;;;;;;;20.33;100.00;96999.75;5072118;28;20207;-63
2022/07/21 01:07:55;;;;;;;123.68;116.40;;;;;;;20.29;100.00;96988.03;5072885;28;20698;-62
2022/07/21 01:10:23;;;;;;;129.02;121.43;;;;;;;20.36;100.00;96993.06;5072716;28;20268;-62
2022/07/21 01:12:49;;;;;;;114.28;107.47;;;;;;;20.40;100.00;97007.38;5072653;28;20633;-63
2022/07/21 01:15:16;;;;;;;121.05;113.78;;;;;;;20.36;100.00;97025.00;5072132;28;20181;-63
2022/07/21 01:17:42;;;;;;;126.47;118.63;;;;;;;20.47;100.00;97021.16;5072773;28;20518;-62
2022/07/21 01:20:11;;;;;;;100.78;94.53;;;;;;;20.31;100.00;97021.31;5072423;28;20184;-63
2022/07/21 01:22:39;;;;;;;110.85;104.03;;;;;;;20.21;100.00;97010.75;5072240;28;20201;-63
2022/07/21 01:25:05;;;;;;;110.82;104.07;;;;;;;20.24;100.00;97010.19;5072331;28;20250;-63
2022/07/21 01:27:31;;;;;;;99.45;93.18;;;;;;;20.31;100.00;97018.66;5072636;28;20197;-62
2022/07/21 01:29:57;;;;;;;72.57;67.82;;;;;;;20.17;100.00;97019.59;5071934;28;20200;-62
2022/07/21 01:32:22;;;;;;;77.57;72.47;;;;;;;20.20;100.00;97019.81;5072278;28;20276;-63
2022/07/21 01:34:48;;;;;;;86.63;81.25;;;;;;;20.16;100.00;97018.00;5072485;28;20182;-63
2022/07/21 01:37:14;;;;;;;82.10;76.95;;;;;;;20.26;100.00;97020.56;5076178;28;20188;-63
2022/07/21 01:42:24;;;;;;;82.82;77.18;;;;;;;20.20;100.00;97022.47;5076274;28;20212;-63
2022/07/21 01:44:50;;;;;;;74.57;69.88;;;;;;;20.26;100.00;97024.00;5058250;28;20185;-63
2022/07/21 01:47:17;;;;;;;78.70;73.60;;;;;;;20.06;100.00;97042.84;5076359;28;20530;-62
2022/07/21 01:49:43;;;;;;;64.15;59.90;;;;;;;20.33;100.00;97047.69;5076135;28;20216;-64
2022/07/21 01:52:08;;;;;;;60.10;55.78;;;;;;;20.22;100.00;97043.50;5075694;28;20262;-63
2022/07/21 01:54:33;;;;;;;59.80;55.85;;;;;;;20.27;100.00;97054.09;5075827;28;20229;-62
2022/07/21 01:56:59;;;;;;;57.83;54.13;;;;;;;20.22;100.00;97056.81;5076109;28;20177;-63
2022/07/21 01:59:24;;;;;;;66.90;62.40;;;;;;;20.14;100.00;97057.41;5076389;28;20185;-62
2022/07/21 02:01:49;;;;;;;79.70;74.80;;;;;;;20.25;100.00;97074.88;5075682;28;20208;-62
2022/07/21 02:04:15;;;;;;;79.95;74.93;;;;;;;20.27;100.00;97080.72;5057428;28;20618;-62
2022/07/21 02:06:40;;;;;;;49.10;45.88;;;;;;;20.26;100.00;97074.59;5076019;28;20587;-63
2022/07/21 02:09:07;;;;;;;87.25;82.18;;;;;;;20.13;100.00;97067.25;5075883;28;20288;-62
2022/07/21 02:11:32;;;;;;;92.60;87.25;;;;;;;20.05;100.00;97067.09;5075390;28;20255;-63
2022/07/21 02:13:57;;;;;;;73.22;68.93;;;;;;;19.79;100.00;97051.31;5075401;28;20185;-62
2022/07/21 02:16:23;;;;;;;74.53;69.93;;;;;;;19.89;100.00;97050.47;5075397;28;20677;-63
2022/07/21 02:18:48;;;;;;;81.38;76.50;;;;;;;19.84;100.00;97051.28;5075495;28;20269;-64
2022/07/21 02:21:14;;;;;;;73.25;68.70;;;;;;;19.69;100.00;97047.94;5074778;28;20173;-63
2022/07/21 02:23:39;;;;;;;73.40;69.05;;;;;;;19.64;100.00;97055.97;5074817;28;20189;-62
2022/07/21 02:26:05;;;;;;;65.22;61.28;;;;;;;19.54;100.00;97042.75;5075625;28;20695;-63
2022/07/21 02:28:30;;;;;;;82.32;77.07;;;;;;;19.54;100.00;97053.38;5056415;28;20190;-63
2022/07/21 02:30:55;;;;;;;79.93;75.03;;;;;;;19.58;100.00;97057.88;5075038;28;20181;-63
2022/07/21 02:33:21;;;;;;;88.93;83.65;;;;;;;19.64;100.00;97070.06;5075499;28;20199;-63
2022/07/21 02:35:47;;;;;;;103.18;97.00;;;;;;;19.56;100.00;97073.31;5075427;28;20235;-63
2022/07/21 02:38:12;;;;;;;95.65;90.10;;;;;;;19.60;100.00;97074.34;5074801;28;20197;-63
2022/07/21 02:40:38;;;;;;;109.00;102.72;;;;;;;19.57;100.00;97077.56;5074785;28;20196;-63
2022/07/21 02:43:07;;;;;;;105.75;99.85;;;;;;;19.49;100.00;97063.00;5074752;28;20204;-63
2022/07/21 02:45:33;;;;;;;91.55;86.28;;;;;;;19.55;100.00;97055.78;5075067;28;20192;-62
2022/07/21 02:48:07;;;;;;;105.82;99.70;;;;;;;19.57;100.00;97058.94;5073699;28;20177;-62
2022/07/21 02:50:35;;;;;;;105.75;99.63;;;;;;;19.62;100.00;97063.41;5074397;28;20215;-63
2022/07/21 02:53:04;;;;;;;105.45;99.45;;;;;;;19.47;100.00;97054.50;5075044;28;20182;-63
2022/07/21 02:55:30;;;;;;;108.70;102.45;;;;;;;19.50;100.00;97061.91;5074740;28;20217;-62
2022/07/21 02:58:05;;;;;;;96.05;90.55;;;;;;;19.49;100.00;97065.66;5074737;28;20677;-63
2022/07/21 03:00:30;;;;;;;95.80;90.18;;;;;;;19.47;100.00;97053.69;5074758;28;20212;-62
2022/07/21 03:02:56;;;;;;;85.53;80.60;;;;;;;19.47;100.00;97065.13;5074800;28;20247;-62
2022/07/21 03:05:21;;;;;;;76.38;71.55;;;;;;;19.29;100.00;97057.75;5074384;28;20181;-62
2022/07/21 03:07:46;;;;;;;90.57;85.28;;;;;;;19.36;100.00;97065.44;5074981;28;20277;-62
2022/07/21 03:10:12;;;;;;;89.72;84.53;;;;;;;19.43;100.00;97057.97;5074579;28;20544;-62
2022/07/21 03:12:37;;;;;;;84.95;79.95;;;;;;;19.44;100.00;97055.03;5074544;28;20212;-63
2022/07/21 03:15:03;;;;;;;91.10;86.00;;;;;;;19.44;100.00;97062.22;5074588;28;20648;-63
2022/07/21 03:17:28;;;;;;;80.65;75.90;;;;;;;19.40;100.00;97058.50;5074411;28;20676;-63
2022/07/21 03:19:53;;;;;;;73.47;68.95;;;;;;;19.38;100.00;97053.47;5074212;28;20216;-62
2022/07/21 03:22:19;;;;;;;59.80;56.22;;;;;;;19.32;100.00;97062.53;5073874;28;20212;-63
2022/07/21 03:24:44;;;;;;;75.78;71.03;;;;;;;19.21;100.00;97066.31;5073834;28;20185;-62
2022/07/21 03:27:09;;;;;;;71.93;67.78;;;;;;;19.33;100.00;97071.31;5073295;28;20193;-63
2022/07/21 03:29:35;;;;;;;76.78;72.40;;;;;;;19.27;100.00;97070.56;5073708;28;20182;-63
2022/07/21 03:32:00;;;;;;;62.67;58.78;;;;;;;19.23;100.00;97072.16;5073970;28;20264;-63
2022/07/21 03:34:25;;;;;;;58.03;54.33;;;;;;;19.34;100.00;97073.69;5056130;28;20185;-63
2022/07/21 03:36:51;;;;;;;67.93;63.88;;;;;;;19.28;100.00;97077.44;5074104;28;20272;-63
2022/07/21 03:39:16;;;;;;;63.08;59.25;;;;;;;19.30;100.00;97082.47;5073307;28;20208;-63
2022/07/21 03:41:41;;;;;;;63.15;59.33;;;;;;;19.29;100.00;97083.53;5073913;28;20185;-63
2022/07/21 03:44:07;;;;;;;64.22;60.33;;;;;;;19.32;100.00;97083.00;5073812;28;20284;-63
2022/07/21 03:46:32;;;;;;;77.55;73.10;;;;;;;19.27;100.00;97089.16;5073959;28;20540;-63
2022/07/21 03:48:57;;;;;;;85.75;80.70;;;;;;;19.45;100.00;97093.84;5073863;28;20690;-63
2022/07/21 03:51:23;;;;;;;89.13;83.72;;;;;;;19.41;100.00;97086.66;5073461;28;20268;-64
2022/07/21 03:53:49;;;;;;;82.82;78.05;;;;;;;19.37;100.00;97081.13;5073539;28;20189;-63
2022/07/21 03:56:14;;;;;;;83.35;78.60;;;;;;;19.40;100.00;97091.19;5072975;28;20746;-63
2022/07/21 03:58:39;;;;;;;87.88;82.93;;;;;;;19.32;100.00;97086.47;5073269;28;20174;-63
2022/07/21 04:01:05;;;;;;;86.72;81.57;;;;;;;19.49;100.00;97097.56;5073565;28;20599;-63
2022/07/21 04:03:33;;;;;;;85.57;80.78;;;;;;;19.41;100.00;97113.25;5072810;28;20213;-63
2022/07/21 04:05:59;;;;;;;95.95;90.40;;;;;;;19.39;100.00;97128.69;5073340;28;20181;-64
2022/07/21 04:08:25;;;;;;;75.30;70.13;;;;;;;19.26;100.00;97122.13;5072783;28;20642;-63
2022/07/21 04:10:50;;;;;;;96.90;91.38;;;;;;;19.03;100.00;97123.53;5073394;28;20231;-63
2022/07/21 04:13:16;;;;;;;90.65;85.05;;;;;;;18.98;100.00;97122.78;5073460;28;20201;-63
2022/07/21 04:15:41;;;;;;;88.55;83.50;;;;;;;19.18;100.00;97121.88;5073393;28;20181;-63
2022/07/21 04:18:07;;;;;;;87.95;83.03;;;;;;;19.12;100.00;97121.09;5073018;28;20189;-63
2022/07/21 04:20:33;;;;;;;86.68;81.63;;;;;;;19.29;100.00;97137.50;5073204;28;20231;-64
2022/07/21 04:22:59;;;;;;;67.90;63.90;;;;;;;19.28;100.00;97125.28;5072768;28;20229;-63
2022/07/21 04:25:24;;;;;;;78.70;74.20;;;;;;;19.25;100.00;97125.03;5073292;28;20662;-63
2022/07/21 04:27:50;;;;;;;99.32;93.68;;;;;;;19.11;100.00;97119.53;5069661;28;20198;-63
2022/07/21 04:30:19;;;;;;;97.63;92.03;;;;;;;19.08;100.00;97123.53;5073290;28;20190;-63
2022/07/21 04:32:45;;;;;;;89.63;84.40;;;;;;;19.22;100.00;97131.72;5073029;28;20189;-63
2022/07/21 04:35:11;;;;;;;62.42;58.58;;;;;;;19.37;100.00;97125.50;5072946;28;20625;-63
2022/07/21 04:37:37;;;;;;;95.60;89.88;;;;;;;19.58;100.00;97132.34;5073175;28;20200;-63
2022/07/21 04:40:05;;;;;;;95.38;89.75;;;;;;;19.62;100.00;97133.38;5072388;28;20189;-63
2022/07/21 04:42:31;;;;;;;82.95;78.15;;;;;;;19.58;100.00;97132.34;5073021;28;20201;-63
2022/07/21 04:44:56;;;;;;;99.10;93.25;;;;;;;19.58;100.00;97140.31;5072946;28;20196;-63
2022/07/21 04:47:22;;;;;;;62.45;58.40;;;;;;;19.85;100.00;97146.00;5073135;28;20191;-63
2022/07/21 04:49:47;;;;;;;90.78;85.38;;;;;;;19.78;100.00;97145.50;5072729;28;20230;-63
2022/07/21 04:52:12;;;;;;;69.18;65.05;;;;;;;19.90;100.00;97143.28;5072514;28;20560;-63
2022/07/21 04:54:38;;;;;;;76.10;71.72;;;;;;;19.90;100.00;97148.59;5072107;28;20228;-63
2022/07/21 04:57:05;;;;;;;82.43;77.68;;;;;;;20.00;100.00;97145.09;5072779;28;20178;-63
2022/07/21 04:59:32;;;;;;;76.10;71.72;;;;;;;19.99;100.00;97143.50;5072735;28;20276;-63
2022/07/21 05:01:58;;;;;;;71.20;67.05;;;;;;;20.45;100.00;97137.84;5072222;28;20186;-63
2022/07/21 05:04:24;;;;;;;97.63;92.28;;;;;;;20.72;100.00;97138.88;5072490;28;20583;-62
2022/07/21 05:06:49;;;;;;;111.43;105.13;;;;;;;20.98;100.00;97149.25;5072880;28;20216;-63
2022/07/21 05:09:14;;;;;;;157.77;149.02;;;;;;;21.43;100.00;97140.75;5072883;28;20181;-63
2022/07/21 05:11:40;;;;;;;273.80;258.60;;;;;;;21.36;100.00;97144.81;5078329;28;20192;-63
2022/07/21 05:14:06;;;;;;;203.07;192.02;;;;;;;21.40;100.00;97138.63;5079229;28;20630;-63
2022/07/21 05:16:31;;;;;;;211.93;200.65;;;;;;;21.63;100.00;97133.53;5079206;28;20189;-63
2022/07/21 05:18:56;;;;;;;324.63;306.40;;;;;;;21.18;100.00;97130.38;5078631;28;20177;-63
2022/07/21 05:21:22;;;;;;;403.75;379.67;;;;;;;21.96;99.98;97144.00;5079205;28;20291;-64
2022/07/21 05:23:47;;;;;;;356.80;335.67;;;;;;;22.10;98.72;97159.28;5078555;28;20196;-64
2022/07/21 05:26:13;;;;;;;392.23;369.65;;;;;;;22.22;97.26;97149.75;5078892;28;20196;-64
2022/07/21 05:28:39;;;;;;;318.27;299.70;;;;;;;22.63;92.86;97151.69;5058095;28;20197;-64
2022/07/21 05:31:04;;;;;;;304.88;287.02;;;;;;;22.74;92.63;97151.25;5078956;28;20185;-64
2022/07/21 05:33:30;;;;;;;216.60;203.88;;;;;;;22.91;91.79;97147.22;5078960;28;20189;-64
2022/07/21 05:35:55;;;;;;;267.45;252.38;;;;;;;22.89;91.98;97142.19;5079031;28;20189;-63
2022/07/21 05:38:20;;;;;;;330.55;311.50;;;;;;;23.05;89.01;97148.03;5079277;28;20178;-64
2022/07/21 05:40:46;;;;;;;340.85;320.80;;;;;;;22.96;89.31;97150.56;5078558;28;20688;-64
2022/07/21 05:43:11;;;;;;;298.38;281.15;;;;;;;23.04;89.16;97160.59;5078825;28;20278;-64
2022/07/21 05:45:36;;;;;;;247.73;233.40;;;;;;;23.42;87.59;97163.84;5078907;28;20231;-64
2022/07/21 05:48:02;;;;;;;175.65;165.60;;;;;;;23.25;87.73;97157.50;5079243;28;20548;-64
2022/07/21 05:50:27;;;;;;;185.57;174.55;;;;;;;23.14;87.73;97168.41;5079042;28;20196;-64
2022/07/21 05:52:53;;;;;;;314.50;295.92;;;;;;;22.88;88.89;97172.66;5078694;28;20204;-64
2022/07/21 05:55:18;;;;;;;366.88;345.30;;;;;;;22.84;88.91;97176.25;5078849;28;20251;-64
2022/07/21 05:57:43;;;;;;;483.33;454.35;;;;;;;23.43;87.15;97172.66;5078730;28;20181;-64
2022/07/21 06:00:09;;;;;;;204.40;192.45;;;;;;;23.85;83.59;97183.00;5079077;28;20185;-63
2022/07/21 06:02:35;;;;;;;184.57;173.70;;;;;;;23.66;84.42;97193.09;5078564;28;20209;-64
2022/07/21 06:05:00;;;;;;;243.60;230.05;;;;;;;24.08;81.92;97193.75;5078396;28;20199;-63
2022/07/21 06:07:26;;;;;;;190.02;179.57;;;;;;;24.23;81.52;97194.25;5078688;28;20197;-64
2022/07/21 06:09:51;;;;;;;173.60;163.23;;;;;;;24.15;81.63;97192.25;5078588;28;20200;-67
2022/07/21 06:12:17;;;;;;;193.88;183.10;;;;;;;23.67;83.25;97197.34;5078229;28;20189;-65
2022/07/21 06:14:42;;;;;;;174.82;165.02;;;;;;;23.55;85.76;97195.19;5078776;28;20268;-65
2022/07/21 06:17:07;;;;;;;195.63;184.70;;;;;;;23.73;83.24;97198.81;5078253;28;20181;-65
2022/07/21 06:19:33;;;;;;;261.25;246.70;;;;;;;23.76;83.36;97198.22;5078311;28;20378;-65
2022/07/21 06:21:59;;;;;;;327.98;309.65;;;;;;;24.12;81.29;97200.91;5075852;28;20625;-65
2022/07/21 06:24:26;;;;;;;302.55;285.60;;;;;;;24.00;82.15;97200.63;5073765;28;20192;-65
2022/07/21 06:26:52;;;;;;;183.20;173.18;;;;;;;24.78;77.46;97207.34;5073108;28;20240;-66
2022/07/21 06:29:18;;;;;;;313.85;296.42;;;;;;;24.36;77.70;97201.41;5074409;28;20338;-65
2022/07/21 06:31:43;;;;;;;231.07;218.82;;;;;;;23.91;80.71;97205.09;5075156;28;20685;-64
2022/07/21 06:34:08;;;;;;;299.70;283.40;;;;;;;22.96;79.14;97203.28;5074559;28;20185;-64
2022/07/21 06:36:34;;;;;;;273.52;258.55;;;;;;;23.00;83.48;97209.63;5075280;28;20204;-64
2022/07/21 06:38:59;;;;;;;431.05;406.65;;;;;;;23.09;82.80;97207.84;5074780;28;20188;-64
2022/07/21 06:41:24;;;;;;;521.60;491.38;;;;;;;23.47;82.65;97211.94;5074845;28;20181;-64
2022/07/21 06:43:50;;;;;;;487.92;460.02;;;;;;;23.91;79.79;97216.63;5074631;28;20280;-64
2022/07/21 06:46:15;;;;;;;369.40;348.20;;;;;;;23.33;81.10;97213.78;5074629;28;20189;-64
2022/07/21 06:48:40;;;;;;;511.95;482.27;;;;;;;23.98;78.91;97211.63;5074525;28;20510;-64
2022/07/21 06:51:06;;;;;;;367.45;347.10;;;;;;;23.52;79.70;97221.72;5074827;28;20209;-64
2022/07/21 06:53:31;;;;;;;530.90;499.80;;;;;;;24.22;78.90;97211.41;5074552;28;20185;-64
2022/07/21 06:55:57;;;;;;;242.52;229.48;;;;;;;24.88;73.17;97217.84;5073443;28;20267;-64
2022/07/21 06:58:24;;;;;;;189.85;179.35;;;;;;;24.73;73.02;97219.00;5074062;28;20197;-64
2022/07/21 07:00:51;;;;;;;237.38;224.68;;;;;;;24.32;75.77;97216.53;5074395;28;20205;-65
2022/07/21 07:03:17;;;;;;;237.85;225.00;;;;;;;24.85;72.50;97216.53;5073112;28;20242;-65
2022/07/21 07:05:44;;;;;;;220.25;208.40;;;;;;;25.02;69.57;97215.84;5073300;28;20185;-63
2022/07/21 07:08:10;;;;;;;153.05;144.55;;;;;;;24.95;68.51;97212.06;5073496;28;20185;-63
2022/07/21 07:10:35;;;;;;;86.32;81.38;;;;;;;24.63;69.39;97207.75;5073940;28;20727;-65
2022/07/21 07:13:01;;;;;;;132.10;125.10;;;;;;;25.13;64.72;97208.34;5055689;28;20246;-63
2022/07/21 07:15:28;;;;;;;151.07;143.20;;;;;;;25.16;63.94;97216.56;5073704;28;20690;-63
2022/07/21 07:17:53;;;;;;;195.63;184.98;;;;;;;25.25;62.90;97214.69;5073359;28;20200;-63
2022/07/21 07:20:19;;;;;;;267.45;252.95;;;;;;;25.46;62.60;97217.63;5073969;28;20177;-64
2022/07/21 07:22:45;;;;;;;365.15;344.35;;;;;;;25.64;60.91;97226.53;5073735;28;20207;-64
2022/07/21 07:25:11;;;;;;;386.48;364.67;;;;;;;25.83;60.63;97229.72;5072833;28;20185;-64
2022/07/21 07:27:36;;;;;;;344.50;325.15;;;;;;;26.37;59.41;97232.94;5072721;28;20198;-64
2022/07/21 07:30:03;;;;;;;246.65;232.85;;;;;;;25.96;60.66;97236.88;5074140;28;21185;-64
2022/07/21 07:32:28;;;;;;;242.20;228.70;;;;;;;25.85;61.02;97235.59;5073180;28;20200;-64
2022/07/21 07:34:54;;;;;;;224.88;212.65;;;;;;;26.12;59.44;97231.81;5054969;28;20181;-64
2022/07/21 07:37:19;;;;;;;170.70;161.32;;;;;;;25.75;60.31;97233.19;5073457;28;20200;-64
2022/07/21 07:39:45;;;;;;;172.45;163.15;;;;;;;25.46;62.08;97241.00;5072903;28;20185;-64
2022/07/21 07:42:10;;;;;;;174.00;164.27;;;;;;;25.55;61.28;97236.44;5072757;28;20264;-64
2022/07/21 07:44:36;;;;;;;262.23;248.07;;;;;;;25.67;60.30;97231.28;5072268;28;20212;-64
2022/07/21 07:47:01;;;;;;;256.65;242.68;;;;;;;26.02;58.98;97226.75;5054606;28;20188;-64
2022/07/21 07:49:28;;;;;;;202.50;191.25;;;;;;;26.15;58.22;97228.50;5073167;28;20212;-64
2022/07/21 07:51:54;;;;;;;148.52;140.35;;;;;;;26.27;56.85;97222.50;5073012;28;20204;-64
2022/07/21 07:54:20;;;;;;;145.55;137.85;;;;;;;26.01;57.35;97231.34;5072412;28;20642;-64
2022/07/21 07:56:45;;;;;;;126.20;119.40;;;;;;;25.97;58.33;97230.38;5072846;28;20177;-64
2022/07/21 07:59:10;;;;;;;146.48;138.55;;;;;;;25.43;60.74;97236.22;5072241;28;20211;-64
2022/07/21 08:01:36;;;;;;;167.27;158.27;;;;;;;24.91;61.98;97236.00;5070660;28;20189;-64
2022/07/21 08:04:01;;;;;;;225.82;213.45;;;;;;;25.29;60.99;97230.19;5072211;28;20563;-64
2022/07/21 08:06:27;;;;;;;265.63;251.05;;;;;;;25.92;59.52;97232.41;5073050;28;20181;-64
2022/07/21 08:08:52;;;;;;;170.05;161.05;;;;;;;25.61;59.82;97225.28;5073340;28;20260;-64
2022/07/21 08:11:17;;;;;;;151.50;143.25;;;;;;;26.22;57.79;97231.50;5073292;28;20230;-64
2022/07/21 08:13:43;;;;;;;122.90;116.30;;;;;;;26.56;57.10;97230.72;5054569;28;20197;-64
2022/07/21 08:16:08;;;;;;;148.50;140.45;;;;;;;26.96;55.13;97228.63;5071745;28;20201;-64
2022/07/21 08:18:34;;;;;;;64.68;61.05;;;;;;;26.77;54.24;97228.94;5072614;28;20212;-64
2022/07/21 08:20:59;;;;;;;77.15;72.45;;;;;;;26.41;55.02;97236.59;5072680;28;20633;-64
2022/07/21 08:23:25;;;;;;;138.57;131.35;;;;;;;27.19;53.48;97237.25;5072763;28;20201;-64
2022/07/21 08:25:50;;;;;;;430.42;406.65;;;;;;;27.30;52.99;97241.97;5072603;28;20679;-64
2022/07/21 08:28:16;;;;;;;475.17;449.13;;;;;;;26.42;54.77;97238.94;5071165;28;20193;-64
2022/07/21 08:30:41;;;;;;;444.85;420.52;;;;;;;26.65;54.75;97230.69;5072446;28;20189;-64
2022/07/21 08:33:07;;;;;;;445.10;420.95;;;;;;;26.60;54.95;97237.03;5072200;28;20522;-64
2022/07/21 08:35:33;;;;;;;439.08;414.88;;;;;;;26.94;53.97;97240.78;5072490;28;20193;-64
2022/07/21 08:38:03;;;;;;;370.85;350.70;;;;;;;27.18;52.71;97233.75;5072542;28;20189;-64
2022/07/21 08:40:30;;;;;;;206.40;195.13;;;;;;;26.70;52.24;97233.22;5072449;28;20331;-64
2022/07/21 08:42:56;;;;;;;176.60;167.10;;;;;;;26.72;51.84;97236.38;5072598;28;20208;-64
2022/07/21 08:45:22;;;;;;;197.15;186.48;;;;;;;27.42;51.38;97235.84;5070777;28;20638;-64
2022/07/21 08:47:55;;;;;;;159.50;150.90;;;;;;;27.13;50.65;97222.38;5072494;28;20189;-64
2022/07/21 08:50:26;;;;;;;165.55;156.57;;;;;;;27.05;51.27;97226.69;5071684;28;20528;-64
2022/07/21 08:52:52;;;;;;;153.90;145.82;;;;;;;27.53;50.12;97225.56;5071893;28;20197;-64
2022/07/21 08:55:17;;;;;;;149.32;141.45;;;;;;;27.26;50.71;97226.75;5071617;28;20217;-65
2022/07/21 08:57:42;;;;;;;150.52;142.55;;;;;;;27.44;50.45;97225.56;5072444;28;20239;-64
2022/07/21 09:00:10;;;;;;;176.48;167.35;;;;;;;27.31;50.71;97221.97;5071945;28;20192;-65
2022/07/21 09:02:37;;;;;;;178.43;169.30;;;;;;;27.16;49.83;97235.97;5072040;28;20250;-64
2022/07/21 09:05:07;;;;;;;126.75;119.90;;;;;;;27.15;49.54;97231.69;5070823;28;20177;-62
2022/07/21 09:07:54;;;;;;;164.85;155.82;;;;;;;27.32;48.97;97233.53;5071534;28;20258;-63
2022/07/21 09:10:25;;;;;;;147.20;139.50;;;;;;;26.76;50.58;97226.56;5071709;28;20177;-63
2022/07/21 09:12:54;;;;;;;151.82;143.85;;;;;;;27.24;49.21;97223.59;5071976;28;20224;-63
2022/07/21 09:15:22;;;;;;;159.80;151.35;;;;;;;27.06;49.68;97222.09;5071746;28;20192;-63
2022/07/21 09:18:21;;;;;;;114.40;108.30;;;;;;;27.08;49.07;97222.56;5071689;28;20185;-62
2022/07/21 09:20:48;;;;;;;134.02;127.00;;;;;;;27.47;48.55;97222.25;5066557;28;20553;-64
2022/07/21 09:23:15;;;;;;;102.10;96.65;;;;;;;27.45;48.62;97220.97;5071257;28;20232;-64
2022/07/21 09:25:44;;;;;;;121.97;115.45;;;;;;;27.81;48.56;97220.50;5071053;28;20243;-63
2022/07/21 09:28:22;;;;;;;150.73;143.13;;;;;;;27.83;47.27;97224.41;5067885;28;20242;-64
2022/07/21 09:31:01;;;;;;;351.15;333.42;;;;;;;27.95;46.20;97224.50;5071379;28;20269;-64
2022/07/21 09:33:40;;;;;;;366.70;347.92;;;;;;;27.35;47.59;97222.13;5072522;28;20220;-64
2022/07/21 09:36:08;;;;;;;320.60;303.63;;;;;;;26.62;49.82;97213.31;5071831;28;20189;-64
2022/07/21 09:38:39;;;;;;;62.83;59.40;;;;;;;26.66;49.58;97227.69;5072299;28;20646;-63
2022/07/21 09:41:19;;;;;;;81.75;77.30;;;;;;;26.69;49.24;97219.00;5070959;28;20182;-64
2022/07/21 09:43:46;;;;;;;109.75;103.90;;;;;;;26.69;49.70;97221.69;5072025;28;20204;-64
2022/07/21 09:46:28;;;;;;;106.25;99.88;;;;;;;26.76;50.05;97216.59;5072083;28;20185;-64
2022/07/21 09:48:56;;;;;;;105.60;99.78;;;;;;;26.09;50.41;97217.09;5071976;28;20178;-63
2022/07/21 09:51:26;;;;;;;104.70;98.90;;;;;;;26.30;50.06;97221.91;5071462;28;20185;-63
2022/07/21 09:53:55;;;;;;;119.80;113.30;;;;;;;26.28;50.24;97216.03;5071330;28;20185;-64
2022/07/21 09:56:21;;;;;;;125.93;119.20;;;;;;;26.40;50.17;97216.19;5071854;28;20689;-63
2022/07/21 09:58:48;;;;;;;90.55;85.63;;;;;;;26.15;49.03;97215.06;5074963;28;20246;-64
2022/07/21 10:01:14;;;;;;;107.25;101.50;;;;;;;26.19;48.33;97209.84;5075005;28;20260;-64
2022/07/21 10:03:45;;;;;;;101.07;95.68;;;;;;;26.42;48.46;97219.34;5074613;28;20262;-64
2022/07/21 10:06:12;;;;;;;89.55;84.65;;;;;;;26.23;49.14;97218.88;5075078;28;20183;-63
2022/07/21 10:08:38;;;;;;;92.60;87.60;;;;;;;26.71;48.37;97218.66;5074758;28;20201;-63
2022/07/21 10:11:04;;;;;;;74.68;70.55;;;;;;;27.01;47.17;97216.88;5074971;28;20189;-64
2022/07/21 10:13:30;;;;;;;86.90;82.40;;;;;;;27.18;47.32;97208.75;5057282;28;20673;-63
2022/07/21 10:15:57;;;;;;;118.55;112.43;;;;;;;27.29;47.24;97202.69;5072645;28;20284;-64
2022/07/21 10:18:34;;;;;;;241.73;228.93;;;;;;;27.21;47.10;97208.09;5074082;28;20197;-63
2022/07/21 10:21:14;;;;;;;191.43;181.45;;;;;;;27.24;47.23;97207.47;5074709;28;20854;-64
2022/07/21 10:23:42;;;;;;;236.13;223.32;;;;;;;27.25;47.17;97193.66;5074631;28;20727;-64
2022/07/21 10:26:09;;;;;;;357.20;337.52;;;;;;;27.21;47.41;97202.69;5074009;28;20650;-64
2022/07/21 10:28:34;;;;;;;434.63;411.13;;;;;;;27.38;46.74;97197.25;5074291;28;20185;-63
2022/07/21 10:31:13;;;;;;;307.85;291.50;;;;;;;27.66;46.01;97200.28;5074962;28;20234;-63
2022/07/21 10:33:44;;;;;;;232.10;219.77;;;;;;;27.44;45.13;97195.16;5074749;28;20189;-64
2022/07/21 10:36:29;;;;;;;223.93;212.27;;;;;;;27.49;45.36;97187.66;5075268;28;20195;-64
2022/07/21 10:39:06;;;;;;;219.27;207.88;;;;;;;27.50;45.13;97183.91;5074713;28;20209;-63
2022/07/21 10:41:43;;;;;;;355.02;336.95;;;;;;;27.65;44.42;97190.63;5074546;28;20185;-64
2022/07/21 10:44:27;;;;;;;326.00;309.40;;;;;;;27.77;42.95;97181.81;5074071;28;20247;-64
2022/07/21 10:47:16;;;;;;;299.33;284.23;;;;;;;27.69;43.60;97175.41;5074655;28;20188;-64
2022/07/21 10:49:46;;;;;;;197.82;187.70;;;;;;;27.05;43.95;97180.13;5074214;28;20181;-64
2022/07/21 10:52:41;;;;;;;253.07;240.07;;;;;;;27.24;43.67;97180.53;5074489;28;20213;-63
2022/07/21 10:55:09;;;;;;;279.30;264.88;;;;;;;27.44;43.80;97182.47;5074563;28;20233;-64
2022/07/21 10:57:35;;;;;;;221.27;209.75;;;;;;;27.89;43.44;97168.41;5074789;28;20189;-63
2022/07/21 11:00:29;;;;;;;201.45;191.43;;;;;;;28.02;43.06;97173.56;5074265;28;20189;-64
2022/07/21 11:03:02;;;;;;;148.25;140.70;;;;;;;28.35;42.28;97170.13;5073192;28;20189;-64
2022/07/21 11:05:31;;;;;;;169.18;160.85;;;;;;;28.68;40.96;97179.00;5074345;28;20235;-64
2022/07/21 11:08:10;;;;;;;102.65;97.50;;;;;;;28.54;40.37;97173.88;5073128;28;20229;-64